createdAt,value
2018-11-14T00:01:20.597Z,4.50
2018-11-14T00:03:48.767Z,4.77
2018-11-14T00:06:16.949Z,4.50
2018-11-14T00:08:45.626Z,4.77
2018-11-14T00:11:13.837Z,4.17
2018-11-14T00:13:42.007Z,4.93
2018-11-14T00:16:10.113Z,5.27
2018-11-14T00:18:38.248Z,5.60
2018-11-14T00:21:06.352Z,5.37
2018-11-14T00:23:34.497Z,4.60
2018-11-14T00:26:02.644Z,4.90
2018-11-14T00:28:30.785Z,4.40
2018-11-14T00:30:58.893Z,4.53
2018-11-14T00:33:27.119Z,5.07
2018-11-14T00:35:55.234Z,4.57
2018-11-14T00:38:23.373Z,4.90
2018-11-14T00:40:51.541Z,4.40
2018-11-14T00:43:19.688Z,4.30
2018-11-14T00:45:47.821Z,5.20
2018-11-14T00:48:15.974Z,5.50
2018-11-14T00:50:44.099Z,4.83
2018-11-14T00:53:12.255Z,5.00
2018-11-14T00:55:40.403Z,5.53
2018-11-14T00:58:08.606Z,5.43
2018-11-14T01:00:36.718Z,4.70
2018-11-14T01:03:05.147Z,5.00
2018-11-14T01:05:33.278Z,5.17
2018-11-14T01:08:01.416Z,5.60
2018-11-14T01:10:29.580Z,5.90
2018-11-14T01:12:57.849Z,5.17
2018-11-14T01:15:25.971Z,5.13
2018-11-14T01:17:54.127Z,5.83
2018-11-14T01:20:22.845Z,4.53
2018-11-14T01:22:51.024Z,5.13
2018-11-14T01:25:19.549Z,5.57
2018-11-14T01:27:47.829Z,5.40
2018-11-14T01:30:24.440Z,5.77
2018-11-14T01:32:53.176Z,5.80
2018-11-14T01:35:21.532Z,5.40
2018-11-14T01:37:49.678Z,5.70
2018-11-14T01:40:20.088Z,5.93
2018-11-14T01:42:51.122Z,5.20
2018-11-14T01:45:19.349Z,5.27
2018-11-14T01:47:47.504Z,6.23
2018-11-14T01:50:15.706Z,5.83
2018-11-14T01:52:43.856Z,6.03
2018-11-14T01:55:18.372Z,5.50
2018-11-14T01:57:46.538Z,6.63
2018-11-14T02:00:16.749Z,5.87
2018-11-14T02:02:44.912Z,6.07
2018-11-14T02:05:13.082Z,5.40
2018-11-14T02:07:41.245Z,6.10
2018-11-14T02:10:11.032Z,6.77
2018-11-14T02:12:39.791Z,7.93
2018-11-14T02:15:11.740Z,7.57
2018-11-14T02:17:39.935Z,6.50
2018-11-14T02:20:08.452Z,6.97
2018-11-14T02:22:36.662Z,7.90
2018-11-14T02:25:06.465Z,7.13
2018-11-14T02:27:34.631Z,7.70
2018-11-14T02:30:02.814Z,6.40
2018-11-14T02:32:30.946Z,7.97
2018-11-14T02:34:59.127Z,6.07
2018-11-14T02:37:27.331Z,6.70
2018-11-14T02:39:55.564Z,5.73
2018-11-14T02:42:23.726Z,7.33
2018-11-14T02:44:51.968Z,6.40
2018-11-14T02:47:20.180Z,5.93
2018-11-14T02:49:48.342Z,6.90
2018-11-14T02:52:16.493Z,6.80
2018-11-14T02:54:44.618Z,6.47
2018-11-14T02:57:12.768Z,6.23
2018-11-14T02:59:40.928Z,6.43
2018-11-14T03:02:09.086Z,6.73
2018-11-14T03:04:37.261Z,7.07
2018-11-14T03:07:05.424Z,6.90
2018-11-14T03:09:33.590Z,6.43
2018-11-14T03:12:01.721Z,6.40
2018-11-14T03:14:29.898Z,5.87
2018-11-14T03:16:58.056Z,6.70
2018-11-14T03:19:26.238Z,6.40
2018-11-14T03:21:54.376Z,6.83
2018-11-14T03:24:22.518Z,6.73
2018-11-14T03:26:53.595Z,7.00
2018-11-14T03:29:21.705Z,6.20
2018-11-14T03:31:49.843Z,7.77
2018-11-14T03:34:17.982Z,6.40
2018-11-14T03:36:46.103Z,7.87
2018-11-14T03:39:14.320Z,6.77
2018-11-14T03:41:42.464Z,6.90
2018-11-14T03:44:10.582Z,6.80
2018-11-14T03:46:38.742Z,6.90
2018-11-14T03:49:06.870Z,6.33
2018-11-14T03:51:35.071Z,8.73
2018-11-14T03:54:03.246Z,6.83
2018-11-14T03:56:31.384Z,7.43
2018-11-14T03:58:59.539Z,6.80
2018-11-14T04:01:27.684Z,6.87
2018-11-14T04:03:55.837Z,7.50
2018-11-14T04:06:23.968Z,6.37
2018-11-14T04:08:52.132Z,6.90
2018-11-14T04:11:20.334Z,6.90
2018-11-14T04:13:48.431Z,6.40
2018-11-14T04:16:16.555Z,6.10
2018-11-14T04:18:44.689Z,7.17
2018-11-14T04:21:12.879Z,6.47
2018-11-14T04:23:44.726Z,7.80
2018-11-14T04:26:12.833Z,7.00
2018-11-14T04:28:41.002Z,7.30
2018-11-14T04:31:09.148Z,8.90
2018-11-14T04:33:37.307Z,7.40
2018-11-14T04:36:05.568Z,7.77
2018-11-14T04:38:33.710Z,7.93
2018-11-14T04:41:01.872Z,7.70
2018-11-14T04:43:30.028Z,7.27
2018-11-14T04:45:58.237Z,7.50
2018-11-14T04:48:26.364Z,8.87
2018-11-14T04:50:54.512Z,9.70
2018-11-14T04:53:22.672Z,7.17
2018-11-14T04:55:50.837Z,7.97
2018-11-14T04:58:19.009Z,8.17
2018-11-14T05:00:47.156Z,8.10
2018-11-14T05:03:15.357Z,8.30
2018-11-14T05:05:43.600Z,7.60
2018-11-14T05:08:11.863Z,7.67
2018-11-14T05:10:41.873Z,7.37
2018-11-14T05:13:10.172Z,6.90
2018-11-14T05:15:38.247Z,7.70
2018-11-14T05:18:06.419Z,7.77
2018-11-14T05:20:34.544Z,8.00
2018-11-14T05:23:02.683Z,7.80
2018-11-14T05:25:30.941Z,7.73
2018-11-14T05:27:59.151Z,8.03
2018-11-14T05:30:27.341Z,7.17
2018-11-14T05:32:55.526Z,7.90
2018-11-14T05:35:23.630Z,8.40
2018-11-14T05:37:52.397Z,7.77
2018-11-14T05:40:21.855Z,7.77
2018-11-14T05:42:51.896Z,7.77
2018-11-14T05:45:22.342Z,8.03
2018-11-14T05:47:50.409Z,7.50
2018-11-14T05:50:19.675Z,8.30
2018-11-14T05:52:47.822Z,8.37
2018-11-14T05:55:16.357Z,7.33
2018-11-14T05:57:45.305Z,8.07
2018-11-14T06:00:17.223Z,8.60
2018-11-14T06:02:46.197Z,7.90
2018-11-14T06:05:14.341Z,9.33
2018-11-14T06:07:42.481Z,8.20
2018-11-14T06:10:12.181Z,10.60
2018-11-14T06:12:41.180Z,9.20
2018-11-14T06:15:13.018Z,9.00
2018-11-14T06:17:41.867Z,8.57
2018-11-14T06:20:12.197Z,9.70
2018-11-14T06:22:40.525Z,10.27
2018-11-14T06:25:29.706Z,8.40
2018-11-14T06:27:58.753Z,11.50
2018-11-14T06:30:27.296Z,9.83
2018-11-14T06:32:56.178Z,9.37
2018-11-14T06:35:24.460Z,9.43
2018-11-14T06:37:53.123Z,9.90
2018-11-14T06:40:21.427Z,10.37
2018-11-14T06:42:49.588Z,12.40
2018-11-14T06:45:18.903Z,10.07
2018-11-14T06:47:48.287Z,10.10
2018-11-14T06:50:16.603Z,9.27
2018-11-14T06:52:45.699Z,9.20
2018-11-14T06:55:15.119Z,10.40
2018-11-14T06:57:43.476Z,9.90
2018-11-14T07:00:15.144Z,10.00
2018-11-14T07:02:44.205Z,10.20
2018-11-14T07:05:14.593Z,9.23
2018-11-14T07:07:43.462Z,10.73
2018-11-14T07:10:13.843Z,11.60
2018-11-14T07:12:41.996Z,10.00
2018-11-14T07:15:13.031Z,9.67
2018-11-14T07:17:41.548Z,9.70
2018-11-14T07:20:14.742Z,10.80
2018-11-14T07:22:44.347Z,10.73
2018-11-14T07:25:12.900Z,10.17
2018-11-14T07:27:41.153Z,9.73
2018-11-14T07:30:11.910Z,9.70
2018-11-14T07:32:41.208Z,8.60
2018-11-14T07:35:09.951Z,10.10
2018-11-14T07:37:38.209Z,9.37
2018-11-14T07:40:08.884Z,10.30
2018-11-14T07:42:37.075Z,10.07
2018-11-14T07:45:07.220Z,9.63
2018-11-14T07:47:35.377Z,11.20
2018-11-14T07:50:04.202Z,9.40
2018-11-14T07:52:32.877Z,9.50
2018-11-14T07:55:01.485Z,9.40
2018-11-14T07:57:29.623Z,9.93
2018-11-14T07:59:57.811Z,9.20
2018-11-14T08:02:26.017Z,9.40
2018-11-14T08:04:54.192Z,9.60
2018-11-14T08:07:22.439Z,9.97
2018-11-14T08:09:50.636Z,9.83
2018-11-14T08:12:18.851Z,10.10
2018-11-14T08:14:46.974Z,9.53
2018-11-14T08:17:16.063Z,9.97
2018-11-14T08:19:44.256Z,8.80
2018-11-14T08:22:12.468Z,9.40
2018-11-14T08:24:40.640Z,10.27
2018-11-14T08:27:08.822Z,10.00
2018-11-14T08:29:37.180Z,9.97
2018-11-14T08:32:05.656Z,7.83
2018-11-14T08:34:33.758Z,9.77
2018-11-14T08:37:01.910Z,8.97
2018-11-14T08:39:30.071Z,9.80
2018-11-14T08:41:58.859Z,9.27
2018-11-14T08:44:27.019Z,8.80
2018-11-14T08:46:55.192Z,9.10
2018-11-14T08:49:23.362Z,9.67
2018-11-14T08:51:51.525Z,9.70
2018-11-14T08:54:20.247Z,9.17
2018-11-14T08:56:48.399Z,10.43
2018-11-14T08:59:16.552Z,9.00
2018-11-14T09:01:44.745Z,7.60
2018-11-14T09:04:12.999Z,8.47
2018-11-14T09:06:42.518Z,8.63
2018-11-14T09:09:11.293Z,9.40
2018-11-14T09:11:39.438Z,9.53
2018-11-14T09:14:07.693Z,9.90
2018-11-14T09:16:35.870Z,9.27
2018-11-14T09:19:04.245Z,9.13
2018-11-14T09:21:32.440Z,8.50
2018-11-14T09:24:00.652Z,9.30
2018-11-14T09:26:28.790Z,8.43
2018-11-14T09:28:57.017Z,9.50
2018-11-14T09:31:25.197Z,11.13
2018-11-14T09:33:53.325Z,9.90
2018-11-14T09:36:21.482Z,9.77
2018-11-14T09:38:49.655Z,9.20
2018-11-14T09:41:17.833Z,9.53
2018-11-14T09:43:46.060Z,8.70
2018-11-14T09:46:14.193Z,8.47
2018-11-14T09:48:42.341Z,9.80
2018-11-14T09:51:10.581Z,8.73
2018-11-14T09:53:38.759Z,8.50
2018-11-14T09:56:07.009Z,8.73
2018-11-14T09:58:35.187Z,9.10
2018-11-14T10:01:03.333Z,8.53
2018-11-14T10:03:31.528Z,8.30
2018-11-14T10:05:59.910Z,8.80
2018-11-14T10:08:28.024Z,8.40
2018-11-14T10:10:56.222Z,8.67
2018-11-14T10:13:24.291Z,9.13
2018-11-14T10:15:52.469Z,8.80
2018-11-14T10:18:20.996Z,7.90
2018-11-14T10:20:49.211Z,7.97
2018-11-14T10:23:17.405Z,8.63
2018-11-14T10:25:45.695Z,9.27
2018-11-14T10:28:13.835Z,8.10
2018-11-14T10:30:42.142Z,8.60
2018-11-14T10:33:10.423Z,8.00
2018-11-14T10:35:38.553Z,10.10
2018-11-14T10:38:06.731Z,8.73
2018-11-14T10:40:34.986Z,8.07
2018-11-14T10:43:03.231Z,8.93
2018-11-14T10:45:31.239Z,8.90
2018-11-14T10:47:59.499Z,8.03
2018-11-14T10:50:28.036Z,9.33
2018-11-14T10:52:56.222Z,8.90
2018-11-14T10:55:24.651Z,9.20
2018-11-14T10:57:53.405Z,7.97
2018-11-14T11:00:28.132Z,8.83
2018-11-14T11:03:02.276Z,8.77
2018-11-14T11:06:11.439Z,7.70
2018-11-14T11:08:45.169Z,8.23
2018-11-14T11:11:23.258Z,8.27
2018-11-14T11:14:07.682Z,9.47
2018-11-14T11:16:40.691Z,8.53
2018-11-14T11:19:08.920Z,10.37
2018-11-14T11:21:37.215Z,8.20
2018-11-14T11:24:05.551Z,8.47
2018-11-14T11:26:34.058Z,8.40
2018-11-14T11:29:03.472Z,9.00
2018-11-14T11:31:31.779Z,8.60
2018-11-14T11:33:59.980Z,9.20
2018-11-14T11:36:28.459Z,8.87
2018-11-14T11:38:57.540Z,8.40
2018-11-14T11:41:26.248Z,8.03
2018-11-14T11:43:54.584Z,8.50
2018-11-14T11:46:22.806Z,9.27
2018-11-14T11:48:51.151Z,9.30
2018-11-14T11:51:19.289Z,11.17
2018-11-14T11:53:47.594Z,9.90
2018-11-14T11:56:16.102Z,10.50
2018-11-14T11:58:44.249Z,9.27
2018-11-14T12:01:12.405Z,10.17
2018-11-14T12:03:40.657Z,8.93
2018-11-14T12:06:09.938Z,10.33
2018-11-14T12:08:37.976Z,10.07
2018-11-14T12:11:06.294Z,8.30
2018-11-14T12:13:34.447Z,9.20
2018-11-14T12:16:02.614Z,10.40
2018-11-14T12:18:30.724Z,9.90
2018-11-14T12:20:59.051Z,8.53
2018-11-14T12:23:27.239Z,8.13
2018-11-14T12:25:55.901Z,7.97
2018-11-14T12:28:24.064Z,9.20
2018-11-14T12:30:52.492Z,8.33
2018-11-14T12:33:21.146Z,8.20
2018-11-14T12:35:49.430Z,7.03
2018-11-14T12:38:17.684Z,8.03
2018-11-14T12:40:45.824Z,8.10
2018-11-14T12:43:14.065Z,7.27
2018-11-14T12:45:43.277Z,7.40
2018-11-14T12:48:13.024Z,7.57
2018-11-14T12:50:41.202Z,7.20
2018-11-14T12:53:09.307Z,8.60
2018-11-14T12:55:37.527Z,7.07
2018-11-14T12:58:05.835Z,9.07
2018-11-14T13:00:34.009Z,9.40
2018-11-14T13:03:02.223Z,9.50
2018-11-14T13:05:31.030Z,10.10
2018-11-14T13:07:59.154Z,8.00
2018-11-14T13:10:27.766Z,9.00
2018-11-14T13:12:55.952Z,9.23
2018-11-14T13:15:24.060Z,12.03
2018-11-14T13:17:52.169Z,9.30
2018-11-14T13:20:21.956Z,10.70
2018-11-14T13:22:50.089Z,9.23
2018-11-14T13:25:18.449Z,9.17
2018-11-14T13:27:47.529Z,9.17
2018-11-14T13:30:17.224Z,9.63
2018-11-14T13:32:46.238Z,9.10
2018-11-14T13:35:15.651Z,10.20
2018-11-14T13:37:44.659Z,10.20
2018-11-14T13:40:12.832Z,9.43
2018-11-14T13:42:41.936Z,8.77
2018-11-14T13:45:11.526Z,9.90
2018-11-14T13:47:40.166Z,9.87
2018-11-14T13:50:13.161Z,11.27
2018-11-14T13:52:41.273Z,12.80
2018-11-14T13:55:11.487Z,11.00
2018-11-14T13:57:39.971Z,12.27
2018-11-14T14:00:10.505Z,11.97
2018-11-14T14:02:38.718Z,12.17
2018-11-14T14:05:09.953Z,11.90
2018-11-14T14:07:38.083Z,11.80
2018-11-14T14:10:07.208Z,10.63
2018-11-14T14:12:35.333Z,12.63
2018-11-14T14:15:03.574Z,11.33
2018-11-14T14:17:31.700Z,10.80
2018-11-14T14:19:59.896Z,12.23
2018-11-14T14:22:28.079Z,11.77
2018-11-14T14:24:56.206Z,9.63
2018-11-14T14:27:24.328Z,9.37
2018-11-14T14:29:52.905Z,9.13
2018-11-14T14:32:21.108Z,8.53
2018-11-14T14:34:50.262Z,8.77
2018-11-14T14:37:18.448Z,9.20
2018-11-14T14:39:46.696Z,10.07
2018-11-14T14:42:15.846Z,9.93
2018-11-14T14:44:44.088Z,11.60
2018-11-14T14:47:12.360Z,9.43
2018-11-14T14:49:40.576Z,11.37
2018-11-14T14:52:08.783Z,9.40
2018-11-14T14:54:36.984Z,10.20
2018-11-14T14:57:05.578Z,11.40
2018-11-14T14:59:33.987Z,10.17
2018-11-14T15:02:02.138Z,9.80
2018-11-14T15:04:31.407Z,14.80
2018-11-14T15:06:59.578Z,11.47
2018-11-14T15:09:27.791Z,11.33
2018-11-14T15:11:55.972Z,12.40
2018-11-14T15:14:24.118Z,11.43
2018-11-14T15:16:52.300Z,13.60
2018-11-14T15:19:20.519Z,14.30
2018-11-14T15:21:48.707Z,11.90
2018-11-14T15:24:17.380Z,11.97
2018-11-14T15:26:45.515Z,12.20
2018-11-14T15:29:13.771Z,13.10
2018-11-14T15:31:41.903Z,11.00
2018-11-14T15:34:10.107Z,10.80
2018-11-14T15:36:38.685Z,11.93
2018-11-14T15:39:08.499Z,12.10
2018-11-14T15:41:36.826Z,11.00
2018-11-14T15:44:05.065Z,13.37
2018-11-14T15:46:33.280Z,12.60
2018-11-14T15:49:01.496Z,11.77
2018-11-14T15:51:29.793Z,11.03
2018-11-14T15:53:58.064Z,11.90
2018-11-14T15:56:26.277Z,11.53
2018-11-14T15:58:54.571Z,11.77
2018-11-14T16:01:22.715Z,11.57
2018-11-14T16:03:50.895Z,12.17
2018-11-14T16:06:19.172Z,12.70
2018-11-14T16:08:47.330Z,10.97
2018-11-14T16:11:15.458Z,11.63
2018-11-14T16:13:47.843Z,12.30
2018-11-14T16:16:16.073Z,13.20
2018-11-14T16:18:44.267Z,11.40
2018-11-14T16:21:12.981Z,12.03
2018-11-14T16:23:41.100Z,11.90
2018-11-14T16:26:09.361Z,13.73
2018-11-14T16:28:37.545Z,13.13
2018-11-14T16:31:05.973Z,11.63
2018-11-14T16:33:34.111Z,12.70
2018-11-14T16:36:02.236Z,12.00
2018-11-14T16:38:30.412Z,10.87
2018-11-14T16:40:58.581Z,12.97
2018-11-14T16:43:26.703Z,13.03
2018-11-14T16:45:54.885Z,13.20
2018-11-14T16:48:23.043Z,13.37
2018-11-14T16:50:51.176Z,14.27
2018-11-14T16:53:19.389Z,13.37
2018-11-14T16:55:48.200Z,15.10
2018-11-14T16:58:16.301Z,13.53
2018-11-14T17:00:44.459Z,13.77
2018-11-14T17:03:12.625Z,13.20
2018-11-14T17:05:40.886Z,43.77
2018-11-14T17:08:09.207Z,15.07
2018-11-14T17:10:37.377Z,14.67
2018-11-14T17:13:05.860Z,15.90
2018-11-14T17:15:34.000Z,13.77
2018-11-14T17:18:03.352Z,14.57
2018-11-14T17:23:06.293Z,13.63
2018-11-14T17:25:34.482Z,15.83
2018-11-14T17:28:02.811Z,16.13
2018-11-14T17:30:34.784Z,14.77
2018-11-14T17:33:03.082Z,15.17
2018-11-14T17:35:31.248Z,14.30
2018-11-14T17:37:59.481Z,15.40
2018-11-14T17:40:28.609Z,15.10
2018-11-14T17:42:56.841Z,14.70
2018-11-14T17:45:26.633Z,15.90
2018-11-14T17:47:55.197Z,16.00
2018-11-14T17:50:24.912Z,15.30
2018-11-14T17:52:53.876Z,14.57
2018-11-14T17:55:22.641Z,15.17
2018-11-14T17:57:50.883Z,14.83
2018-11-14T18:00:20.347Z,16.17
2018-11-14T18:02:48.709Z,16.10
2018-11-14T18:05:18.913Z,17.33
2018-11-14T18:07:47.981Z,19.00
2018-11-14T18:10:17.419Z,18.07
2018-11-14T18:12:46.505Z,21.40
2018-11-14T18:15:14.659Z,18.40
2018-11-14T18:17:43.036Z,18.40
2018-11-14T18:20:13.393Z,18.50
2018-11-14T18:22:42.171Z,16.53
2018-11-14T18:25:11.063Z,16.57
2018-11-14T18:27:39.309Z,24.90
2018-11-14T18:30:10.537Z,17.90
2018-11-14T18:32:38.729Z,19.50
2018-11-14T18:35:08.901Z,17.83
2018-11-14T18:37:37.107Z,17.83
2018-11-14T18:40:06.477Z,15.87
2018-11-14T18:42:34.669Z,18.40
2018-11-14T18:45:02.825Z,17.10
2018-11-14T18:47:31.043Z,17.20
2018-11-14T18:49:59.214Z,16.57
2018-11-14T18:52:27.396Z,15.47
2018-11-14T18:54:55.537Z,17.23
2018-11-14T18:57:30.185Z,18.00
2018-11-14T18:59:58.405Z,16.30
2018-11-14T19:02:26.575Z,15.30
2018-11-14T19:04:54.743Z,16.60
2018-11-14T19:07:22.935Z,15.97
2018-11-14T19:09:51.258Z,17.37
2018-11-14T19:12:19.448Z,25.40
2018-11-14T19:14:47.685Z,23.27
2018-11-14T19:17:15.867Z,22.80
2018-11-14T19:19:44.055Z,17.37
2018-11-14T19:22:12.301Z,18.43
2018-11-14T19:24:40.574Z,18.47
2018-11-14T19:27:08.782Z,43.00
2018-11-14T19:29:36.956Z,19.77
2018-11-14T19:32:05.422Z,26.70
2018-11-14T19:34:33.664Z,18.07
2018-11-14T19:37:01.917Z,18.03
2018-11-14T19:39:30.035Z,17.30
2018-11-14T19:41:58.265Z,19.20
2018-11-14T19:44:26.471Z,17.17
2018-11-14T19:46:54.724Z,16.23
2018-11-14T19:49:22.988Z,17.60
2018-11-14T19:51:51.247Z,16.57
2018-11-14T19:54:19.421Z,17.63
2018-11-14T19:56:47.635Z,16.40
2018-11-14T19:59:15.847Z,19.23
2018-11-14T20:01:43.976Z,15.60
2018-11-14T20:04:12.165Z,16.50
2018-11-14T20:06:40.356Z,16.23
2018-11-14T20:09:09.562Z,30.23
2018-11-14T20:11:37.724Z,19.00
2018-11-14T20:14:06.135Z,20.87
2018-11-14T20:16:34.360Z,16.70
2018-11-14T20:19:02.593Z,18.70
2018-11-14T20:21:31.016Z,15.83
2018-11-14T20:23:59.317Z,19.07
2018-11-14T20:26:28.653Z,17.20
2018-11-14T20:28:56.776Z,18.47
2018-11-14T20:31:25.026Z,16.53
2018-11-14T20:33:53.278Z,16.93
2018-11-14T20:36:22.383Z,16.70
2018-11-14T20:38:50.691Z,16.70
2018-11-14T20:41:18.906Z,15.00
2018-11-14T20:43:47.142Z,16.60
2018-11-14T20:46:15.587Z,17.77
2018-11-14T20:48:43.864Z,20.23
2018-11-14T20:51:12.061Z,17.30
2018-11-14T20:53:40.315Z,15.90
2018-11-14T20:56:09.481Z,17.60
2018-11-14T20:58:37.871Z,17.13
2018-11-14T21:01:06.260Z,16.77
2018-11-14T21:03:34.635Z,16.63
2018-11-14T21:06:02.840Z,17.90
2018-11-14T21:08:31.009Z,16.23
2018-11-14T21:10:59.167Z,16.30
2018-11-14T21:13:27.381Z,15.03
2018-11-14T21:15:56.103Z,15.40
2018-11-14T21:18:24.342Z,14.07
2018-11-14T21:20:52.535Z,14.67
2018-11-14T21:23:20.719Z,15.30
2018-11-14T21:25:48.926Z,14.70
2018-11-14T21:28:17.076Z,14.13
2018-11-14T21:30:45.256Z,13.83
2018-11-14T21:33:13.470Z,15.63
2018-11-14T21:35:41.720Z,14.40
2018-11-14T21:38:10.416Z,15.47
2018-11-14T21:40:39.393Z,15.80
2018-11-14T21:43:08.017Z,18.47
2018-11-14T21:45:36.282Z,17.10
2018-11-14T21:48:09.837Z,14.30
2018-11-14T21:50:38.020Z,14.63
2018-11-14T21:53:06.256Z,15.80
2018-11-14T21:55:34.467Z,13.23
2018-11-14T21:58:02.730Z,14.10
2018-11-14T22:00:34.751Z,16.07
2018-11-14T22:03:03.534Z,14.90
2018-11-14T22:05:31.791Z,14.63
2018-11-14T22:07:59.988Z,15.00
2018-11-14T22:10:28.232Z,14.83
2018-11-14T22:12:56.416Z,13.37
2018-11-14T22:15:25.855Z,15.27
2018-11-14T22:17:54.084Z,13.47
2018-11-14T22:20:24.897Z,14.03
2018-11-14T22:22:53.136Z,14.57
2018-11-14T22:25:22.532Z,14.87
2018-11-14T22:27:50.987Z,13.73
2018-11-14T22:30:22.360Z,13.47
2018-11-14T22:32:50.548Z,13.73
2018-11-14T22:35:19.819Z,13.70
2018-11-14T22:37:48.006Z,24.57
2018-11-14T22:40:17.601Z,21.10
2018-11-14T22:42:45.988Z,13.27
2018-11-14T22:45:16.267Z,15.00
2018-11-14T22:47:44.903Z,13.80
2018-11-14T22:50:14.278Z,15.60
2018-11-14T22:52:43.142Z,12.67
2018-11-14T22:55:12.544Z,12.73
2018-11-14T22:57:41.034Z,13.30
2018-11-14T23:00:21.301Z,13.33
2018-11-14T23:02:50.999Z,11.70
2018-11-14T23:05:19.404Z,12.70
2018-11-14T23:07:49.032Z,12.57
2018-11-14T23:10:18.859Z,12.80
2018-11-14T23:12:47.576Z,12.70
2018-11-14T23:15:15.762Z,13.60
2018-11-14T23:17:44.326Z,13.10
2018-11-14T23:20:13.562Z,12.83
2018-11-14T23:22:42.794Z,14.53
2018-11-14T23:25:11.661Z,12.73
2018-11-14T23:27:42.348Z,12.80
2018-11-14T23:30:11.856Z,12.07
2018-11-14T23:32:40.918Z,11.30
2018-11-14T23:35:17.387Z,12.43
2018-11-14T23:37:47.488Z,13.07
2018-11-14T23:40:15.680Z,12.20
2018-11-14T23:42:43.876Z,12.83
2018-11-14T23:45:14.187Z,12.80
2018-11-14T23:47:43.176Z,11.97
2018-11-14T23:50:14.178Z,13.53
2018-11-14T23:52:43.928Z,11.80
2018-11-14T23:55:12.327Z,12.37
2018-11-14T23:57:40.577Z,13.30
